Port Clarence, Alaska
Current Conditions -  °F | °C
As of 9:58 PM on Friday 31 Oct 2014 (Local Time) from PFKT Reporting Station
Clear Clear  
Wind Chill: -3°   Ceiling: Unl
Heat Index: 16°   Visibility: 10mi
Dew Point: 11°   Wind: 25mph
Humidity: 81%   Direction: 30°NNE
Pressure: 29.47"   Gusts: 33mph
Location:  65.26°N, 166.85°W
Report Text: PFKT 010558Z AUTO 03022G29KT 10SM CLR M09/M12 A2947 RMK AO2 PK WND 04037/0530 SLP981 T10891117 11072 21089 58005 FZRANO
Loading
Personal Weather Stations






























Interactive Weather Map
Tropical Storm Tracking
New forecast layout! Learn more

10-Day Weather Forecast

Advertisements
Track Severe Weather on mobile